Tucana J — V2CX7 — position and weather

sailwx.info

Track history (hours):
 
Tides and Currents Weather Stations Pressure Air Temp Water Temp Dewpoint Dewpoint Depression Visibility Wind Speed Wind Dir Waves Ship Positions

Tucana J

Last reported at 2017-Dec-08 03:05 UTC. Time now 2017-Dec-11 00:28 UTC.
Position N 25°29' W 079°40'.

Length 140 m; draft 6.5 m.

Type: Ship (hazmat cat A). MMSI: 305140000.

Date/timePositionNaut miles runAvg speedWind from/ knotsBaromVisibWave heightAir tempDewpointWater temp
2017-Dec-08 03:05N 25°29' W 079°40'112.8
2017-Dec-08 03:01N 25°30' W 079°40'611.3
2017-Dec-08 02:30N 25°35' W 079°40'3 6.8
2017-Dec-08 02:00N 25°39' W 079°40'3 5.4
2017-Dec-08 01:31N 25°41' W 079°40'3 6.7
2017-Dec-08 01:01N 25°44' W 079°43'612.9
2017-Dec-08 00:31N 25°48' W 079°48'612.7
2017-Dec-08 00:01N 25°54' W 079°52'612.9
2017-Dec-07 23:31N 25°59' W 079°57'714.8
2017-Dec-07 23:01N 26°04' W 080°02'4 8.8
2017-Dec-07 22:30N 26°05' W 080°07'1 2.9
2017-Dec-07 22:00N 26°04' W 080°07'0 0.0
2017-Dec-07 21:30N 26°04' W 080°07'0 0.0
2017-Dec-07 20:56N 26°04' W 080°07'0 0.0
2017-Dec-07 20:26N 26°04' W 080°07'0 0.0
2017-Dec-07 19:50N 26°04' W 080°07'0 0.0
2017-Dec-07 19:29N 26°04' W 080°07'0 0.0
2017-Dec-07 18:59N 26°04' W 080°07'0 0.0
2017-Dec-07 18:25N 26°04' W 080°07'0 0.0
2017-Dec-07 17:52N 26°04' W 080°07'0 0.0
2017-Dec-07 17:28N 26°04' W 080°07'0 0.0
2017-Dec-07 16:58N 26°04' W 080°07'0 0.0
2017-Dec-07 16:28N 26°04' W 080°07'0 0.0
2017-Dec-07 16:00N 26°04' W 080°07'0 0.0
2017-Dec-07 15:24N 26°04' W 080°07'0 0.0
2017-Dec-07 15:00N 26°04' W 080°07'0 0.0
2017-Dec-07 14:30N 26°04' W 080°07'0 0.0
2017-Dec-07 13:56N 26°04' W 080°07'0 0.0
2017-Dec-07 13:29N 26°04' W 080°07'0 0.0
2017-Dec-07 12:53N 26°04' W 080°07'0 0.0
2017-Dec-07 12:29N 26°04' W 080°07'0 0.0
2017-Dec-07 11:59N 26°04' W 080°07'0 0.0
2017-Dec-07 11:28N 26°04' W 080°07'0 0.0
2017-Dec-07 10:58N 26°04' W 080°07'0 0.0
2017-Dec-07 10:25N 26°04' W 080°07'0 0.0
2017-Dec-07 09:58N 26°04' W 080°07'0 0.0
2017-Dec-07 09:28N 26°04' W 080°07'0 0.0
2017-Dec-07 08:57N 26°04' W 080°07'0 0.0
2017-Dec-07 08:30N 26°04' W 080°07'0 0.0
2017-Dec-07 08:00N 26°04' W 080°07'0 0.0
2017-Dec-07 07:30N 26°04' W 080°07'0 0.0
2017-Dec-07 06:56N 26°04' W 080°07'0 0.0
2017-Dec-07 06:30N 26°04' W 080°07'1 1.1
2017-Dec-07 06:00N 26°05' W 080°07'2 4.6
2017-Dec-07 05:31N 26°06' W 080°05'4 7.1
2017-Dec-07 05:01N 26°03' W 080°02'510.2
2017-Dec-07 04:31N 25°60' W 079°58'713.0
2017-Dec-07 04:01N 25°54' W 079°55'4 7.1
2017-Dec-07 03:30N 25°55' W 079°59'3 6.8
2017-Dec-07 03:00N 25°55' W 080°02'5 9.7
2017-Dec-07 02:31N 25°50' W 080°01'612.1
2017-Dec-07 02:01N 25°47' W 079°55'611.3
2017-Dec-07 01:31N 25°45' W 079°50'510.7
2017-Dec-07 01:00N 25°45' W 079°44'612.3
2017-Dec-07 00:30N 25°39' W 079°40'4 8.6
2017-Dec-07 00:00N 25°35' W 079°40'4 8.4
2017-Dec-06 23:30N 25°31' W 079°40'815.1
2017-Dec-06 23:00N 25°23' W 079°39'  
2017-Dec-01 02:56N 25°31' W 079°40'510.9
2017-Dec-01 02:30N 25°36' W 079°40'3 6.4
2017-Dec-01 02:00N 25°39' W 079°40'3 6.3
2017-Dec-01 01:30N 25°42' W 079°41'612.1
2017-Dec-01 01:00N 25°47' W 079°45'713.7
2017-Dec-01 00:30N 25°52' W 079°50'713.9
2017-Dec-01 00:01N 25°57' W 079°56'714.6
2017-Nov-30 23:31N 26°02' W 080°01'611.4
2017-Nov-30 23:01N 26°06' W 080°06'2 3.5
2017-Nov-30 22:30N 26°04' W 080°07'0 0.0
2017-Nov-30 21:57N 26°04' W 080°07'0 0.0
2017-Nov-30 21:30N 26°04' W 080°07'0 0.0
2017-Nov-30 20:57N 26°04' W 080°07'0 0.0
2017-Nov-30 20:30N 26°04' W 080°07'0 0.0
2017-Nov-30 19:59N 26°04' W 080°07'0 0.0
2017-Nov-30 19:29N 26°04' W 080°07'0 0.0
2017-Nov-30 18:56N 26°04' W 080°07'0 0.0
2017-Nov-30 18:29N 26°04' W 080°07'0 0.0
2017-Nov-30 17:59N 26°04' W 080°07'0 0.0
2017-Nov-30 17:28N 26°04' W 080°07'0 0.0
2017-Nov-30 16:55N 26°04' W 080°07'0 0.0
2017-Nov-30 16:28N 26°04' W 080°07'0 0.0
2017-Nov-30 15:58N 26°04' W 080°07'0 0.0
2017-Nov-30 15:30N 26°04' W 080°07'0 0.0
2017-Nov-30 14:57N 26°04' W 080°07'0 0.0
2017-Nov-30 14:27N 26°04' W 080°07'0 0.0
2017-Nov-30 14:00N 26°04' W 080°07'0 0.0
2017-Nov-30 13:30N 26°04' W 080°07'0 0.0
2017-Nov-30 12:59N 26°04' W 080°07'0 0.0
2017-Nov-30 12:29N 26°04' W 080°07'0 0.0
2017-Nov-30 11:59N 26°04' W 080°07'0 0.0
2017-Nov-30 11:29N 26°04' W 080°07'0 0.0
2017-Nov-30 10:56N 26°04' W 080°07'0 0.0
2017-Nov-30 10:28N 26°04' W 080°07'0 0.0
2017-Nov-30 09:58N 26°04' W 080°07'0 0.0
2017-Nov-30 09:22N 26°04' W 080°07'0 0.0
2017-Nov-30 08:58N 26°04' W 080°07'0 0.3
2017-Nov-30 08:30N 26°04' W 080°07'2 4.2
2017-Nov-30 08:00N 26°06' W 080°05'510.6
2017-Nov-30 07:31N 26°02' W 080°01'815.0
2017-Nov-30 07:01N 25°56' W 079°55'815.5
2017-Nov-30 06:31N 25°51' W 079°50'815.6
2017-Nov-30 06:01N 25°44' W 079°44'713.8
2017-Nov-30 05:30N 25°38' W 079°41'3 7.0
2017-Nov-30 05:00N 25°35' W 079°40'3 6.6
2017-Nov-30 04:31N 25°32' W 079°40'612.6
2017-Nov-30 04:00N 25°25' W 079°39'  
Track history (hours):
 
Tides and Currents Weather Stations Pressure Air Temp Water Temp Dewpoint Dewpoint Depression Visibility Wind Speed Wind Dir Waves Ship Positions

Tucana J

Last reported at 2017-Dec-08 03:05 UTC. Time now 2017-Dec-11 00:28 UTC.
Position N 25°29' W 079°40'.

Length 140 m; draft 6.5 m.

Type: Ship (hazmat cat A). MMSI: 305140000.

Date/timePositionNaut miles runAvg speedWind from/ knotsBaromVisibWave heightAir tempDewpointWater temp
2017-Dec-08 03:05N 25°29' W 079°40'112.8
2017-Dec-08 03:01N 25°30' W 079°40'611.3
2017-Dec-08 02:30N 25°35' W 079°40'3 6.8
2017-Dec-08 02:00N 25°39' W 079°40'3 5.4
2017-Dec-08 01:31N 25°41' W 079°40'3 6.7
2017-Dec-08 01:01N 25°44' W 079°43'612.9
2017-Dec-08 00:31N 25°48' W 079°48'612.7
2017-Dec-08 00:01N 25°54' W 079°52'612.9
2017-Dec-07 23:31N 25°59' W 079°57'714.8
2017-Dec-07 23:01N 26°04' W 080°02'4 8.8
2017-Dec-07 22:30N 26°05' W 080°07'1 2.9
2017-Dec-07 22:00N 26°04' W 080°07'0 0.0
2017-Dec-07 21:30N 26°04' W 080°07'0 0.0
2017-Dec-07 20:56N 26°04' W 080°07'0 0.0
2017-Dec-07 20:26N 26°04' W 080°07'0 0.0
2017-Dec-07 19:50N 26°04' W 080°07'0 0.0
2017-Dec-07 19:29N 26°04' W 080°07'0 0.0
2017-Dec-07 18:59N 26°04' W 080°07'0 0.0
2017-Dec-07 18:25N 26°04' W 080°07'0 0.0
2017-Dec-07 17:52N 26°04' W 080°07'0 0.0
2017-Dec-07 17:28N 26°04' W 080°07'0 0.0
2017-Dec-07 16:58N 26°04' W 080°07'0 0.0
2017-Dec-07 16:28N 26°04' W 080°07'0 0.0
2017-Dec-07 16:00N 26°04' W 080°07'0 0.0
2017-Dec-07 15:24N 26°04' W 080°07'0 0.0
2017-Dec-07 15:00N 26°04' W 080°07'0 0.0
2017-Dec-07 14:30N 26°04' W 080°07'0 0.0
2017-Dec-07 13:56N 26°04' W 080°07'0 0.0
2017-Dec-07 13:29N 26°04' W 080°07'0 0.0
2017-Dec-07 12:53N 26°04' W 080°07'0 0.0
2017-Dec-07 12:29N 26°04' W 080°07'0 0.0
2017-Dec-07 11:59N 26°04' W 080°07'0 0.0
2017-Dec-07 11:28N 26°04' W 080°07'0 0.0
2017-Dec-07 10:58N 26°04' W 080°07'0 0.0
2017-Dec-07 10:25N 26°04' W 080°07'0 0.0
2017-Dec-07 09:58N 26°04' W 080°07'0 0.0
2017-Dec-07 09:28N 26°04' W 080°07'0 0.0
2017-Dec-07 08:57N 26°04' W 080°07'0 0.0
2017-Dec-07 08:30N 26°04' W 080°07'0 0.0
2017-Dec-07 08:00N 26°04' W 080°07'0 0.0
2017-Dec-07 07:30N 26°04' W 080°07'0 0.0
2017-Dec-07 06:56N 26°04' W 080°07'0 0.0
2017-Dec-07 06:30N 26°04' W 080°07'1 1.1
2017-Dec-07 06:00N 26°05' W 080°07'2 4.6
2017-Dec-07 05:31N 26°06' W 080°05'4 7.1
2017-Dec-07 05:01N 26°03' W 080°02'510.2
2017-Dec-07 04:31N 25°60' W 079°58'713.0
2017-Dec-07 04:01N 25°54' W 079°55'4 7.1
2017-Dec-07 03:30N 25°55' W 079°59'3 6.8
2017-Dec-07 03:00N 25°55' W 080°02'5 9.7
2017-Dec-07 02:31N 25°50' W 080°01'612.1
2017-Dec-07 02:01N 25°47' W 079°55'611.3
2017-Dec-07 01:31N 25°45' W 079°50'510.7
2017-Dec-07 01:00N 25°45' W 079°44'612.3
2017-Dec-07 00:30N 25°39' W 079°40'4 8.6
2017-Dec-07 00:00N 25°35' W 079°40'4 8.4
2017-Dec-06 23:30N 25°31' W 079°40'815.1
2017-Dec-06 23:00N 25°23' W 079°39'  
2017-Dec-01 02:56N 25°31' W 079°40'510.9
2017-Dec-01 02:30N 25°36' W 079°40'3 6.4
2017-Dec-01 02:00N 25°39' W 079°40'3 6.3
2017-Dec-01 01:30N 25°42' W 079°41'612.1
2017-Dec-01 01:00N 25°47' W 079°45'713.7
2017-Dec-01 00:30N 25°52' W 079°50'713.9
2017-Dec-01 00:01N 25°57' W 079°56'714.6
2017-Nov-30 23:31N 26°02' W 080°01'611.4
2017-Nov-30 23:01N 26°06' W 080°06'2 3.5
2017-Nov-30 22:30N 26°04' W 080°07'0 0.0
2017-Nov-30 21:57N 26°04' W 080°07'0 0.0
2017-Nov-30 21:30N 26°04' W 080°07'0 0.0
2017-Nov-30 20:57N 26°04' W 080°07'0 0.0
2017-Nov-30 20:30N 26°04' W 080°07'0 0.0
2017-Nov-30 19:59N 26°04' W 080°07'0 0.0
2017-Nov-30 19:29N 26°04' W 080°07'0 0.0
2017-Nov-30 18:56N 26°04' W 080°07'0 0.0
2017-Nov-30 18:29N 26°04' W 080°07'0 0.0
2017-Nov-30 17:59N 26°04' W 080°07'0 0.0
2017-Nov-30 17:28N 26°04' W 080°07'0 0.0
2017-Nov-30 16:55N 26°04' W 080°07'0 0.0
2017-Nov-30 16:28N 26°04' W 080°07'0 0.0
2017-Nov-30 15:58N 26°04' W 080°07'0 0.0
2017-Nov-30 15:30N 26°04' W 080°07'0 0.0
2017-Nov-30 14:57N 26°04' W 080°07'0 0.0
2017-Nov-30 14:27N 26°04' W 080°07'0 0.0
2017-Nov-30 14:00N 26°04' W 080°07'0 0.0
2017-Nov-30 13:30N 26°04' W 080°07'0 0.0
2017-Nov-30 12:59N 26°04' W 080°07'0 0.0
2017-Nov-30 12:29N 26°04' W 080°07'0 0.0
2017-Nov-30 11:59N 26°04' W 080°07'0 0.0
2017-Nov-30 11:29N 26°04' W 080°07'0 0.0
2017-Nov-30 10:56N 26°04' W 080°07'0 0.0
2017-Nov-30 10:28N 26°04' W 080°07'0 0.0
2017-Nov-30 09:58N 26°04' W 080°07'0 0.0
2017-Nov-30 09:22N 26°04' W 080°07'0 0.0
2017-Nov-30 08:58N 26°04' W 080°07'0 0.3
2017-Nov-30 08:30N 26°04' W 080°07'2 4.2
2017-Nov-30 08:00N 26°06' W 080°05'510.6
2017-Nov-30 07:31N 26°02' W 080°01'815.0
2017-Nov-30 07:01N 25°56' W 079°55'815.5
2017-Nov-30 06:31N 25°51' W 079°50'815.6
2017-Nov-30 06:01N 25°44' W 079°44'713.8
2017-Nov-30 05:30N 25°38' W 079°41'3 7.0
2017-Nov-30 05:00N 25°35' W 079°40'3 6.6
2017-Nov-30 04:31N 25°32' W 079°40'612.6
2017-Nov-30 04:00N 25°25' W 079°39'  

Dump ship's entire track history